Time;durP1;ratioP1;P1;durP2;ratioP2;P2;SDS_P1;SDS_P2;PMS_P1;PMS_P2;Temp;Humidity;BMP_temperature;BMP_pressure;BME280_temperature;BME280_humidity;BME280_pressure;Samples;Min_cycle;Max_cycle;Signal;HPM_P1;HPM_P2
2022/07/31 00:00:43;;;;;;;9.47;4.80;;;17.20;47.10;;;;;;5061637;28;45897;-68
2022/07/31 00:03:09;;;;;;;8.47;5.10;;;17.10;47.30;;;;;;5060559;28;46634;-68
2022/07/31 00:05:35;;;;;;;10.10;5.33;;;17.10;47.50;;;;;;5061852;28;46339;-68
2022/07/31 00:08:00;;;;;;;9.73;4.90;;;17.10;47.70;;;;;;5061047;28;46435;-68
2022/07/31 00:10:26;;;;;;;9.33;5.33;;;17.00;47.70;;;;;;5061562;28;46445;-68
2022/07/31 00:12:52;;;;;;;12.10;5.00;;;17.00;47.90;;;;;;5060724;28;46049;-68
2022/07/31 00:15:17;;;;;;;6.83;4.20;;;17.00;48.10;;;;;;5060094;28;46461;-68
2022/07/31 00:17:43;;;;;;;6.07;5.07;;;16.90;48.20;;;;;;5060819;28;46507;-68
2022/07/31 00:20:13;;;;;;;10.30;5.77;;;16.90;48.40;;;;;;5061260;28;46497;-68
2022/07/31 00:22:40;;;;;;;7.57;4.80;;;16.90;48.50;;;;;;5061543;28;47195;-68
2022/07/31 00:25:07;;;;;;;11.70;5.07;;;16.80;48.60;;;;;;5060476;28;46487;-68
2022/07/31 00:27:33;;;;;;;6.80;4.60;;;16.80;48.60;;;;;;5063884;28;46663;-68
2022/07/31 00:29:59;;;;;;;7.00;4.77;;;16.80;48.80;;;;;;5060494;28;46544;-69
2022/07/31 00:32:24;;;;;;;6.73;5.07;;;16.80;49.10;;;;;;5060915;28;48034;-68
2022/07/31 00:34:50;;;;;;;8.60;4.80;;;16.70;49.40;;;;;;5061178;28;46330;-67
2022/07/31 00:37:15;;;;;;;6.03;4.60;;;16.60;49.60;;;;;;5060955;28;46403;-67
2022/07/31 00:39:41;;;;;;;8.50;4.60;;;16.60;49.90;;;;;;5062056;28;45922;-68
2022/07/31 00:42:21;;;;;;;7.47;4.80;;;16.50;49.30;;;;;;5057102;28;47194;-67
2022/07/31 00:44:47;;;;;;;8.73;4.67;;;16.40;50.40;;;;;;5061506;28;46371;-68
2022/07/31 00:47:13;;;;;;;5.80;4.33;;;16.40;50.40;;;;;;5059845;28;46354;-68
2022/07/31 00:49:39;;;;;;;5.80;4.50;;;16.30;51.80;;;;;;5061917;28;46574;-68
2022/07/31 00:52:05;;;;;;;8.30;6.13;;;16.10;50.10;;;;;;5058812;28;48057;-68
2022/07/31 00:54:30;;;;;;;7.50;5.33;;;16.10;51.10;;;;;;5061731;28;46791;-68
2022/07/31 00:56:56;;;;;;;8.40;5.60;;;16.10;51.20;;;;;;5059127;28;46370;-67
2022/07/31 00:59:22;;;;;;;9.90;5.90;;;16.20;51.30;;;;;;5061231;28;45894;-68
2022/07/31 01:01:47;;;;;;;9.60;6.50;;;16.10;51.20;;;;;;5061468;28;46829;-67
2022/07/31 01:04:15;;;;;;;8.33;6.10;;;16.10;50.10;;;;;;5060905;28;46396;-67
2022/07/31 01:06:40;;;;;;;9.27;6.50;;;16.20;51.10;;;;;;5060874;28;46533;-68
2022/07/31 01:09:06;;;;;;;7.67;6.20;;;16.20;51.00;;;;;;5061525;28;46518;-67
2022/07/31 01:11:47;;;;;;;6.60;5.30;;;16.20;51.00;;;;;;5061063;28;48188;-68
2022/07/31 01:14:16;;;;;;;12.57;6.80;;;16.20;50.20;;;;;;5052960;28;46325;-68
2022/07/31 01:16:48;;;;;;;7.93;5.80;;;16.20;51.30;;;;;;5059999;28;46310;-67
2022/07/31 01:19:41;;;;;;;8.20;5.70;;;16.10;51.30;;;;;;5059268;28;46616;-69
2022/07/31 01:22:44;;;;;;;8.47;5.83;;;16.00;50.80;;;;;;5066540;28;46311;-67
2022/07/31 01:25:36;;;;;;;10.53;4.27;;;16.00;51.60;;;;;;5064648;28;46429;-67
2022/07/31 01:28:37;;;;;;;8.40;5.80;;;16.10;51.50;;;;;;5057530;28;46451;-68
2022/07/31 01:31:10;;;;;;;9.87;5.47;;;16.00;51.50;;;;;;5060019;28;46421;-67
2022/07/31 01:33:45;;;;;;;8.10;5.57;;;16.00;50.20;;;;;;5059126;28;46606;-68
2022/07/31 01:36:16;;;;;;;10.13;6.17;;;16.00;51.10;;;;;;5060281;28;46240;-67
2022/07/31 01:38:46;;;;;;;9.97;5.60;;;16.00;51.10;;;;;;5059139;28;46409;-68
2022/07/31 01:41:16;;;;;;;8.30;5.60;;;15.90;51.10;;;;;;5058279;28;46496;-67
2022/07/31 01:43:45;;;;;;;10.20;6.00;;;15.90;51.10;;;;;;5058533;28;47068;-67
2022/07/31 01:46:14;;;;;;;6.67;5.23;;;15.90;51.30;;;;;;5060714;28;46389;-68
2022/07/31 01:48:41;;;;;;;12.73;5.53;;;15.80;51.60;;;;;;5059068;28;46617;-67
2022/07/31 01:51:09;;;;;;;10.03;6.03;;;15.80;51.90;;;;;;5060434;28;45925;-68
2022/07/31 01:53:37;;;;;;;9.23;6.20;;;15.70;51.70;;;;;;5058977;28;46358;-67
2022/07/31 01:56:04;;;;;;;11.07;5.27;;;15.60;52.70;;;;;;5059807;28;46366;-67
2022/07/31 01:58:36;;;;;;;12.83;6.40;;;15.60;53.20;;;;;;5059919;28;46492;-67
2022/07/31 02:01:04;;;;;;;11.50;6.30;;;15.60;53.70;;;;;;5060354;28;46583;-67
2022/07/31 02:03:32;;;;;;;11.20;6.20;;;15.50;53.80;;;;;;5059399;28;46656;-67
2022/07/31 02:06:00;;;;;;;6.70;5.67;;;15.50;54.10;;;;;;5059523;28;46433;-68
2022/07/31 02:08:26;;;;;;;7.90;5.97;;;15.50;54.10;;;;;;5061550;28;45792;-68
2022/07/31 02:10:53;;;;;;;14.47;6.63;;;15.50;54.10;;;;;;5064410;28;46439;-68
2022/07/31 02:13:20;;;;;;;9.87;5.90;;;15.50;54.20;;;;;;5058194;28;48198;-68
2022/07/31 02:15:46;;;;;;;10.23;6.70;;;15.50;54.30;;;;;;5063984;28;46382;-68
2022/07/31 02:18:12;;;;;;;11.87;7.40;;;15.50;54.40;;;;;;5062038;28;46342;-68
2022/07/31 02:20:39;;;;;;;8.70;6.57;;;15.40;54.30;;;;;;5064042;28;46387;-68
2022/07/31 02:23:05;;;;;;;10.10;6.00;;;15.40;54.30;;;;;;5063353;28;46162;-67
2022/07/31 02:25:34;;;;;;;7.97;5.80;;;15.40;54.30;;;;;;5063657;28;46410;-67
2022/07/31 02:28:01;;;;;;;8.93;5.83;;;15.30;54.40;;;;;;5069081;28;46355;-68
2022/07/31 02:30:30;;;;;;;15.10;5.63;;;15.30;54.60;;;;;;5062939;28;45961;-68
2022/07/31 02:32:56;;;;;;;12.57;6.20;;;15.30;54.60;;;;;;5062148;28;46667;-68
2022/07/31 02:35:23;;;;;;;8.40;6.40;;;15.40;54.40;;;;;;5062234;28;46363;-68
2022/07/31 02:37:51;;;;;;;14.33;5.87;;;15.50;54.10;;;;;;5062932;28;46432;-68
2022/07/31 02:40:19;;;;;;;8.57;5.60;;;15.60;53.90;;;;;;5061727;28;46681;-68
2022/07/31 02:42:45;;;;;;;10.13;6.23;;;15.60;53.60;;;;;;5061496;28;46640;-68
2022/07/31 02:45:12;;;;;;;11.83;6.23;;;15.70;53.50;;;;;;5062992;28;46307;-67
2022/07/31 02:47:38;;;;;;;9.20;5.53;;;15.60;53.40;;;;;;5062098;28;46436;-68
2022/07/31 02:50:04;;;;;;;8.90;5.77;;;15.60;53.60;;;;;;5061297;28;46584;-68
2022/07/31 02:52:30;;;;;;;10.97;5.60;;;15.60;53.80;;;;;;5061838;28;47226;-68
2022/07/31 02:54:57;;;;;;;11.10;5.93;;;15.60;53.80;;;;;;5061853;28;46707;-68
2022/07/31 02:57:23;;;;;;;6.10;5.33;;;15.60;53.80;;;;;;5061976;28;46415;-68
2022/07/31 02:59:48;;;;;;;9.70;6.40;;;15.60;53.80;;;;;;5064592;28;46650;-68
2022/07/31 03:02:14;;;;;;;5.80;4.87;;;15.60;53.70;;;;;;5061665;28;46929;-68
2022/07/31 03:04:40;;;;;;;8.00;5.63;;;15.70;53.50;;;;;;5063082;28;46443;-68
2022/07/31 03:07:05;;;;;;;6.83;5.30;;;15.80;53.40;;;;;;5060938;28;46395;-68
2022/07/31 03:09:31;;;;;;;6.00;4.80;;;15.90;53.20;;;;;;5063603;28;46628;-68
2022/07/31 03:11:57;;;;;;;10.37;5.13;;;16.00;52.00;;;;;;5062433;28;46397;-67
2022/07/31 03:14:25;;;;;;;8.17;6.00;;;15.90;52.90;;;;;;5063128;28;46331;-68
2022/07/31 03:16:52;;;;;;;7.03;4.43;;;16.00;52.80;;;;;;5062047;28;46440;-68
2022/07/31 03:19:20;;;;;;;10.37;4.70;;;16.10;52.70;;;;;;5061026;28;46913;-68
2022/07/31 03:21:47;;;;;;;6.37;4.87;;;16.20;52.60;;;;;;5060951;28;46256;-68
2022/07/31 03:24:13;;;;;;;8.30;5.50;;;16.20;51.60;;;;;;5059689;28;46437;-67
2022/07/31 03:26:38;;;;;;;7.90;5.27;;;16.30;52.70;;;;;;5062177;28;45869;-68
2022/07/31 03:29:04;;;;;;;8.57;5.17;;;16.30;52.60;;;;;;5061225;28;46381;-68
2022/07/31 03:31:30;;;;;;;7.30;5.50;;;16.30;52.60;;;;;;5062180;28;46475;-67
2022/07/31 03:33:56;;;;;;;7.40;4.67;;;16.40;51.80;;;;;;5060773;28;46409;-68
2022/07/31 03:36:23;;;;;;;8.20;5.00;;;16.30;52.80;;;;;;5061317;28;46417;-67
2022/07/31 03:38:48;;;;;;;6.83;5.00;;;16.30;52.90;;;;;;5059581;28;46571;-68
2022/07/31 03:41:15;;;;;;;5.50;4.80;;;16.20;53.20;;;;;;5059910;28;46904;-68
2022/07/31 03:43:42;;;;;;;12.73;4.63;;;16.20;54.50;;;;;;5061915;28;46339;-68
2022/07/31 03:46:08;;;;;;;10.80;5.00;;;16.20;53.50;;;;;;5061208;28;46521;-67
2022/07/31 03:48:35;;;;;;;5.43;4.23;;;16.10;53.60;;;;;;5061354;28;46452;-67
2022/07/31 03:51:01;;;;;;;9.47;4.70;;;16.10;53.50;;;;;;5061645;28;47003;-68
2022/07/31 03:53:28;;;;;;;8.80;4.63;;;16.20;53.50;;;;;;5061489;28;46409;-68
2022/07/31 03:55:55;;;;;;;9.70;5.03;;;16.20;53.30;;;;;;5060207;28;46890;-68
2022/07/31 03:58:22;;;;;;;6.70;4.63;;;16.40;53.10;;;;;;5061118;28;46353;-68
2022/07/31 04:00:47;;;;;;;8.30;4.83;;;16.40;52.80;;;;;;5060174;28;46334;-67
2022/07/31 04:03:13;;;;;;;12.67;4.60;;;16.50;52.70;;;;;;5062239;28;46520;-68
2022/07/31 04:05:40;;;;;;;6.90;4.63;;;16.50;52.60;;;;;;5067345;28;46452;-68
2022/07/31 04:08:07;;;;;;;10.10;5.00;;;16.60;52.40;;;;;;5066572;28;46585;-68
2022/07/31 04:10:34;;;;;;;8.73;4.87;;;16.60;52.40;;;;;;5062004;28;46444;-68
2022/07/31 04:13:03;;;;;;;7.37;4.80;;;16.60;52.20;;;;;;5061005;28;46312;-68
2022/07/31 04:15:29;;;;;;;7.13;3.93;;;16.70;52.30;;;;;;5060930;28;46476;-68
2022/07/31 04:17:55;;;;;;;6.83;5.30;;;16.70;52.20;;;;;;5061612;28;46532;-68
2022/07/31 04:20:21;;;;;;;8.37;4.30;;;16.80;52.20;;;;;;5062155;28;46421;-68
2022/07/31 04:22:47;;;;;;;7.73;4.50;;;16.80;52.00;;;;;;5061640;28;46366;-68
2022/07/31 04:25:13;;;;;;;6.90;4.90;;;16.80;51.90;;;;;;5061738;28;46556;-68
2022/07/31 04:27:38;;;;;;;7.93;4.77;;;16.90;52.00;;;;;;5061885;28;46219;-68
2022/07/31 04:30:05;;;;;;;7.23;3.97;;;17.00;52.20;;;;;;5060045;28;46013;-68
2022/07/31 04:32:30;;;;;;;6.17;4.00;;;16.90;51.90;;;;;;5060499;28;46341;-68
2022/07/31 04:34:56;;;;;;;5.53;4.37;;;17.00;52.00;;;;;;5059050;28;46287;-68
2022/07/31 04:37:22;;;;;;;6.30;4.67;;;17.10;51.90;;;;;;5061128;28;46245;-68
2022/07/31 04:39:48;;;;;;;8.77;4.60;;;17.10;51.80;;;;;;5060883;28;46948;-68
2022/07/31 04:42:14;;;;;;;10.13;4.30;;;17.20;51.70;;;;;;5061275;28;46381;-68
2022/07/31 04:44:40;;;;;;;6.97;4.57;;;17.20;51.70;;;;;;5062260;28;46393;-67
2022/07/31 04:47:06;;;;;;;7.07;4.40;;;17.20;51.60;;;;;;5060636;28;46389;-66
2022/07/31 04:49:32;;;;;;;7.90;4.20;;;17.30;51.60;;;;;;5061657;28;47437;-68
2022/07/31 04:52:01;;;;;;;6.57;4.00;;;17.50;50.10;;;;;;5059854;28;46357;-67
2022/07/31 04:54:27;;;;;;;6.93;4.40;;;17.50;51.10;;;;;;5060290;28;46440;-68
2022/07/31 04:56:52;;;;;;;5.57;4.00;;;17.60;50.70;;;;;;5061432;28;46465;-68
2022/07/31 04:59:20;;;;;;;8.20;4.47;;;17.80;50.30;;;;;;5060746;28;46363;-68
2022/07/31 05:01:47;;;;;;;6.37;4.20;;;18.00;49.90;;;;;;5061057;28;46415;-68
2022/07/31 05:04:13;;;;;;;8.60;4.03;;;18.10;48.60;;;;;;5059692;28;46561;-68
2022/07/31 05:06:43;;;;;;;4.80;3.40;;;18.40;49.40;;;;;;5060157;28;46028;-68
2022/07/31 05:09:12;;;;;;;4.60;3.30;;;18.90;48.80;;;;;;5059746;28;46365;-68
2022/07/31 05:11:38;;;;;;;6.63;3.63;;;19.60;47.20;;;;;;5059950;28;46466;-68
2022/07/31 05:14:05;;;;;;;8.73;3.30;;;20.70;43.60;;;;;;5059845;28;45923;-69
2022/07/31 05:16:31;;;;;;;6.33;3.57;;;21.80;42.50;;;;;;5060938;28;46421;-68
2022/07/31 05:18:57;;;;;;;8.73;3.67;;;22.20;40.70;;;;;;5059278;28;46366;-67
2022/07/31 05:21:25;;;;;;;4.70;3.07;;;22.90;38.70;;;;;;5060611;28;46365;-68
2022/07/31 05:23:52;;;;;;;9.87;3.23;;;23.50;35.10;;;;;;5060817;28;46363;-68
2022/07/31 05:26:19;;;;;;;6.20;3.07;;;23.60;35.80;;;;;;5061884;28;46327;-68
2022/07/31 05:28:46;;;;;;;7.27;3.37;;;23.10;36.10;;;;;;5059896;28;46458;-68
2022/07/31 05:31:12;;;;;;;8.60;3.50;;;22.80;36.60;;;;;;5060483;28;46341;-68
2022/07/31 05:33:38;;;;;;;5.87;3.03;;;22.50;36.30;;;;;;5059069;28;46330;-68
2022/07/31 05:36:04;;;;;;;5.40;2.93;;;22.30;36.10;;;;;;5060671;28;46378;-67
2022/07/31 05:38:31;;;;;;;7.13;3.17;;;22.00;36.70;;;;;;5059975;28;47343;-67
2022/07/31 05:40:56;;;;;;;10.77;3.73;;;21.70;37.30;;;;;;5060135;28;46464;-67
2022/07/31 05:43:22;;;;;;;5.37;3.20;;;21.50;37.70;;;;;;5057250;28;46396;-68
2022/07/31 05:45:47;;;;;;;5.43;3.40;;;21.30;37.80;;;;;;5059295;28;45936;-68
2022/07/31 05:48:14;;;;;;;5.27;3.90;;;21.20;38.00;;;;;;5058248;28;46790;-68
2022/07/31 05:50:43;;;;;;;5.87;3.40;;;21.10;38.20;;;;;;5058281;28;46489;-68
2022/07/31 05:53:11;;;;;;;9.23;3.50;;;21.00;38.20;;;;;;5058402;28;46355;-68
2022/07/31 05:55:38;;;;;;;5.77;3.67;;;20.90;38.40;;;;;;5058071;28;46425;-66
2022/07/31 05:58:04;;;;;;;9.40;3.63;;;20.90;38.60;;;;;;5055592;28;46728;-67
2022/07/31 06:00:30;;;;;;;8.83;3.40;;;20.80;38.50;;;;;;5058015;28;46496;-66
2022/07/31 06:02:55;;;;;;;4.87;3.17;;;20.80;37.50;;;;;;5053822;28;46442;-68
2022/07/31 06:05:21;;;;;;;7.13;3.10;;;20.80;38.40;;;;;;5057385;28;46536;-69
2022/07/31 06:07:49;;;;;;;5.10;3.50;;;20.90;38.20;;;;;;5054736;28;47179;-68
2022/07/31 06:10:15;;;;;;;5.00;3.40;;;20.90;37.90;;;;;;5057059;28;46577;-66
2022/07/31 06:12:41;;;;;;;6.40;3.30;;;21.00;36.60;;;;;;5055461;28;46787;-68
2022/07/31 06:15:07;;;;;;;10.17;3.50;;;21.10;37.70;;;;;;5058068;28;46455;-69
2022/07/31 06:17:32;;;;;;;9.63;3.20;;;21.10;37.40;;;;;;5056031;28;47066;-69
2022/07/31 06:19:58;;;;;;;5.20;3.40;;;21.10;37.30;;;;;;5058298;28;46452;-67
2022/07/31 06:22:24;;;;;;;7.13;3.13;;;21.20;35.80;;;;;;5058944;28;46449;-67
2022/07/31 06:24:49;;;;;;;6.60;3.10;;;21.20;36.80;;;;;;5058829;28;46711;-68
2022/07/31 06:27:16;;;;;;;4.93;3.20;;;21.30;36.60;;;;;;5058607;28;46450;-69
2022/07/31 06:29:41;;;;;;;6.80;4.07;;;21.30;36.50;;;;;;5060496;28;46799;-70
2022/07/31 06:32:07;;;;;;;5.47;3.47;;;21.20;35.60;;;;;;5058210;28;46405;-68
2022/07/31 06:34:33;;;;;;;9.33;4.00;;;21.20;36.60;;;;;;5058811;28;46571;-68
2022/07/31 06:36:59;;;;;;;9.90;3.40;;;21.30;36.60;;;;;;5057208;28;47270;-68
2022/07/31 06:39:24;;;;;;;5.93;3.17;;;21.30;36.30;;;;;;5058286;28;46436;-68
2022/07/31 06:41:50;;;;;;;11.73;3.47;;;21.30;36.40;;;;;;5058472;28;46422;-68
2022/07/31 06:44:18;;;;;;;6.50;3.10;;;21.30;35.10;;;;;;5057671;28;46446;-69
2022/07/31 06:46:47;;;;;;;4.33;3.10;;;21.40;35.80;;;;;;5061998;28;47200;-69
2022/07/31 06:49:12;;;;;;;6.40;3.00;;;21.50;35.40;;;;;;5063093;28;47026;-69
2022/07/31 06:51:38;;;;;;;7.03;3.40;;;21.50;35.40;;;;;;5063280;28;46389;-70
2022/07/31 06:54:06;;;;;;;4.57;2.90;;;21.50;34.40;;;;;;5057182;28;45911;-66
2022/07/31 06:56:33;;;;;;;5.63;2.60;;;21.50;35.90;;;;;;5060254;28;46663;-68
2022/07/31 06:58:59;;;;;;;5.90;3.37;;;21.50;35.50;;;;;;5058804;28;46504;-68
2022/07/31 07:01:25;;;;;;;7.13;2.60;;;21.60;35.50;;;;;;5060842;28;46376;-68
2022/07/31 07:03:51;;;;;;;6.63;3.07;;;21.70;34.50;;;;;;5060738;28;46354;-69
2022/07/31 07:06:17;;;;;;;7.10;3.23;;;21.90;35.80;;;;;;5060434;28;48027;-69
2022/07/31 07:08:43;;;;;;;4.83;3.10;;;22.10;35.00;;;;;;5059290;28;46501;-68
2022/07/31 07:11:09;;;;;;;11.83;2.97;;;22.20;34.50;;;;;;5060894;28;46653;-68
2022/07/31 07:13:34;;;;;;;7.17;3.47;;;22.40;33.30;;;;;;5059974;28;46536;-68
2022/07/31 07:16:00;;;;;;;8.53;3.10;;;22.50;34.10;;;;;;5061592;28;47344;-69
2022/07/31 07:18:25;;;;;;;8.13;2.90;;;22.60;33.50;;;;;;5060896;28;46543;-70
2022/07/31 07:20:51;;;;;;;3.60;2.80;;;22.70;33.20;;;;;;5061410;28;46513;-68
2022/07/31 07:23:19;;;;;;;6.80;3.03;;;22.70;32.00;;;;;;5061810;28;46555;-69
2022/07/31 07:25:44;;;;;;;4.07;2.43;;;22.70;33.10;;;;;;5059089;28;46331;-68
2022/07/31 07:28:10;;;;;;;4.73;2.63;;;22.70;33.10;;;;;;5061248;28;45825;-70
2022/07/31 07:30:36;;;;;;;4.93;2.93;;;22.80;33.00;;;;;;5060409;28;46341;-70
2022/07/31 07:33:01;;;;;;;6.80;2.93;;;23.00;32.00;;;;;;5061820;28;46470;-69
2022/07/31 07:35:27;;;;;;;4.67;2.90;;;23.10;32.90;;;;;;5061047;28;46385;-69
2022/07/31 07:37:53;;;;;;;5.33;2.40;;;23.30;32.30;;;;;;5058723;28;46374;-69
2022/07/31 07:40:19;;;;;;;4.57;2.90;;;23.40;32.00;;;;;;5061585;28;46661;-69
2022/07/31 07:42:45;;;;;;;4.83;2.60;;;23.50;30.10;;;;;;5060510;28;46426;-69
2022/07/31 07:45:12;;;;;;;7.53;2.33;;;23.60;31.10;;;;;;5061214;28;46705;-70
2022/07/31 07:47:37;;;;;;;9.03;3.37;;;23.60;31.20;;;;;;5060070;28;46414;-69
2022/07/31 07:50:04;;;;;;;9.93;3.10;;;23.80;30.60;;;;;;5061065;28;46383;-68
2022/07/31 07:52:30;;;;;;;5.33;2.90;;;24.50;28.90;;;;;;5062517;28;46005;-69
2022/07/31 07:54:56;;;;;;;4.83;2.70;;;24.60;29.20;;;;;;5060126;28;46372;-69
2022/07/31 07:57:22;;;;;;;7.77;3.43;;;24.80;28.60;;;;;;5060322;28;46381;-69
2022/07/31 07:59:47;;;;;;;4.80;2.80;;;25.00;27.60;;;;;;5061802;28;46450;-70
2022/07/31 08:02:14;;;;;;;6.40;2.63;;;25.80;25.60;;;;;;5060818;28;46373;-68
2022/07/31 08:04:40;;;;;;;4.43;2.87;;;25.80;25.70;;;;;;5059406;28;47005;-69
2022/07/31 08:07:06;;;;;;;6.60;2.93;;;26.20;24.40;;;;;;5059540;28;46653;-68
2022/07/31 08:09:32;;;;;;;5.93;2.40;;;26.40;23.90;;;;;;5061728;28;46399;-69
2022/07/31 08:11:58;;;;;;;7.23;2.73;;;26.80;22.10;;;;;;5061533;28;46692;-67
2022/07/31 08:14:24;;;;;;;7.13;2.67;;;26.70;22.80;;;;;;5061164;28;46460;-69
2022/07/31 08:16:50;;;;;;;5.20;3.20;;;27.30;21.80;;;;;;5061692;28;46448;-69
2022/07/31 08:19:16;;;;;;;5.43;3.20;;;27.60;21.00;;;;;;5060714;28;46483;-68
2022/07/31 08:21:42;;;;;;;9.13;2.60;;;27.60;20.50;;;;;;5061596;28;45790;-69
2022/07/31 08:24:09;;;;;;;5.23;2.60;;;27.60;19.00;;;;;;5061800;28;47324;-69
2022/07/31 08:27:36;;;;;;;5.70;2.73;;;27.70;20.00;;;;;;5062383;28;46682;-70
2022/07/31 08:29:30;;;;;;;4.23;2.17;;;27.60;20.00;;;;;;5045920;28;46696;-69
2022/07/31 08:31:56;;;;;;;6.57;2.43;;;27.20;19.40;;;;;;5061408;28;46370;-69
2022/07/31 08:34:22;;;;;;;4.97;2.80;;;27.20;20.10;;;;;;5059880;28;46962;-69
2022/07/31 08:36:47;;;;;;;4.33;2.20;;;27.30;19.90;;;;;;5058636;28;46416;-69
2022/07/31 08:39:13;;;;;;;7.00;2.40;;;27.30;19.70;;;;;;5059544;28;46399;-68
2022/07/31 08:41:39;;;;;;;4.87;2.23;;;27.20;19.10;;;;;;5059868;28;46683;-69
2022/07/31 08:44:06;;;;;;;4.03;2.30;;;26.90;18.40;;;;;;5060472;28;46451;-69
2022/07/31 08:46:41;;;;;;;4.70;2.03;;;27.00;19.70;;;;;;5060023;28;46366;-68
2022/07/31 08:49:08;;;;;;;6.67;2.43;;;26.90;19.50;;;;;;5060512;28;46393;-69
2022/07/31 08:51:38;;;;;;;4.43;2.50;;;26.90;19.70;;;;;;5060596;28;46514;-69
2022/07/31 08:54:07;;;;;;;3.67;2.23;;;26.80;18.40;;;;;;5058442;28;46655;-68
2022/07/31 08:56:34;;;;;;;4.20;2.40;;;26.90;19.90;;;;;;5060153;28;46441;-68
2022/07/31 08:59:00;;;;;;;4.50;2.87;;;27.00;19.60;;;;;;5057784;28;46450;-69
2022/07/31 09:01:26;;;;;;;8.03;2.70;;;27.10;19.30;;;;;;5060803;28;46430;-68
2022/07/31 09:03:53;;;;;;;3.83;1.97;;;27.10;17.90;;;;;;5056079;28;47148;-69
2022/07/31 09:06:18;;;;;;;5.27;2.23;;;27.10;19.00;;;;;;5057791;28;46778;-69
2022/07/31 09:08:44;;;;;;;4.10;2.57;;;27.30;18.50;;;;;;5060298;28;45897;-69
2022/07/31 09:11:12;;;;;;;4.23;2.10;;;27.50;17.70;;;;;;5060783;28;46513;-69
2022/07/31 09:13:39;;;;;;;4.30;2.23;;;27.80;16.00;;;;;;5060271;28;46377;-68
2022/07/31 09:16:06;;;;;;;5.43;2.40;;;27.90;16.40;;;;;;5062031;28;46420;-70
2022/07/31 09:18:32;;;;;;;3.43;1.90;;;27.80;15.70;;;;;;5059508;28;46320;-69
2022/07/31 09:21:01;;;;;;;4.40;2.23;;;27.60;15.50;;;;;;5058753;28;46421;-70
2022/07/31 09:23:28;;;;;;;4.93;2.23;;;28.00;14.30;;;;;;5058395;28;46274;-70
2022/07/31 09:26:02;;;;;;;3.03;1.87;;;28.20;14.50;;;;;;5059521;28;46398;-70
2022/07/31 09:28:33;;;;;;;5.53;1.93;;;28.80;12.70;;;;;;5058838;28;46651;-69
2022/07/31 09:31:00;;;;;;;5.73;2.10;;;29.30;11.60;;;;;;5060087;28;46379;-69
2022/07/31 09:33:28;;;;;;;3.47;2.00;;;29.80;9.70;;;;;;5059328;28;47223;-69
2022/07/31 09:35:54;;;;;;;5.43;2.27;;;30.00;10.10;;;;;;5059347;28;46671;-69
2022/07/31 09:38:20;;;;;;;6.87;2.20;;;30.10;10.00;;;;;;5060137;28;46354;-69
2022/07/31 09:40:46;;;;;;;3.20;1.80;;;30.10;9.20;;;;;;5059222;28;46680;-69
2022/07/31 09:43:23;;;;;;;3.10;2.30;;;30.40;8.70;;;;;;5059637;28;47915;-69
2022/07/31 09:45:59;;;;;;;4.40;2.23;;;30.50;8.90;;;;;;5058093;28;46695;-67
2022/07/31 09:48:25;;;;;;;7.90;2.23;;;30.60;8.70;;;;;;5060611;28;46367;-69
2022/07/31 09:51:01;;;;;;;3.80;1.70;;;30.50;9.10;;;;;;5060269;28;47312;-70
2022/07/31 09:53:39;;;;;;;12.83;2.17;;;29.70;8.50;;;;;;5058207;28;47386;-69
2022/07/31 09:56:06;;;;;;;5.53;2.30;;;29.30;9.70;;;;;;5059463;28;45797;-67
2022/07/31 09:58:32;;;;;;;3.23;1.80;;;29.10;10.50;;;;;;5059605;28;46397;-67
2022/07/31 10:00:59;;;;;;;3.60;2.10;;;29.10;10.70;;;;;;5060249;28;46430;-68
2022/07/31 10:03:25;;;;;;;3.10;1.87;;;28.90;9.70;;;;;;5059110;28;46428;-68
2022/07/31 10:05:54;;;;;;;3.27;1.87;;;28.70;10.50;;;;;;5058330;28;46704;-68
2022/07/31 10:08:21;;;;;;;5.60;2.13;;;28.70;10.50;;;;;;5059348;28;46538;-69
2022/07/31 10:10:48;;;;;;;7.10;2.60;;;28.60;10.40;;;;;;5059124;28;46675;-69
2022/07/31 10:13:18;;;;;;;4.63;2.13;;;28.60;9.60;;;;;;5060437;28;46457;-69
2022/07/31 10:15:46;;;;;;;4.70;2.27;;;28.70;10.20;;;;;;5059791;28;46320;-68
2022/07/31 10:18:11;;;;;;;8.13;2.20;;;28.80;10.10;;;;;;5057511;28;46435;-69
2022/07/31 10:20:40;;;;;;;5.17;2.33;;;28.70;10.40;;;;;;5058950;28;46555;-70
2022/07/31 10:23:18;;;;;;;3.80;2.10;;;28.70;9.40;;;;;;5058259;28;46377;-69
2022/07/31 10:25:50;;;;;;;4.03;1.80;;;28.60;10.10;;;;;;5060738;28;46421;-69
2022/07/31 10:28:17;;;;;;;9.47;2.67;;;28.60;10.20;;;;;;5058500;28;46339;-68
2022/07/31 10:30:45;;;;;;;3.73;1.93;;;28.60;10.20;;;;;;5062494;28;46263;-67
2022/07/31 10:33:10;;;;;;;5.70;2.03;;;29.10;8.60;;;;;;5058259;28;46398;-64
2022/07/31 10:35:51;;;;;;;3.47;2.13;;;29.30;8.80;;;;;;5061307;28;45858;-68
2022/07/31 10:38:32;;;;;;;7.43;1.77;;;29.40;8.00;;;;;;5059576;28;46714;-69
2022/07/31 10:41:16;;;;;;;5.13;2.07;;;29.40;7.30;;;;;;5061940;28;46406;-67
2022/07/31 10:43:47;;;;;;;3.47;2.00;;;29.20;6.40;;;;;;5059456;28;48412;-67
2022/07/31 10:46:12;;;;;;;5.80;1.80;;;29.00;7.40;;;;;;5062940;28;46360;-67
2022/07/31 10:48:49;;;;;;;3.83;1.70;;;28.90;7.50;;;;;;5060970;28;46432;-67
2022/07/31 10:51:15;;;;;;;8.77;3.13;;;28.70;7.20;;;;;;5062951;28;46625;-68
2022/07/31 10:53:53;;;;;;;6.53;2.40;;;28.40;5.90;;;;;;5061887;28;46437;-68
2022/07/31 10:56:18;;;;;;;4.20;1.70;;;28.40;7.00;;;;;;5062093;28;46452;-68
2022/07/31 10:58:49;;;;;;;5.43;2.57;;;28.90;7.20;;;;;;5063110;28;46319;-69
2022/07/31 11:01:15;;;;;;;3.00;1.80;;;28.80;6.80;;;;;;5063119;28;45969;-67
2022/07/31 11:04:01;;;;;;;5.10;2.13;;;29.30;6.60;;;;;;5062567;28;46815;-67
2022/07/31 11:06:40;;;;;;;5.20;1.93;;;29.60;7.00;;;;;;5062707;28;46412;-68
2022/07/31 11:09:05;;;;;;;7.13;2.30;;;29.80;6.40;;;;;;5061666;28;46436;-68
2022/07/31 11:11:33;;;;;;;5.10;2.13;;;29.60;6.70;;;;;;5064118;28;46370;-68
2022/07/31 11:13:59;;;;;;;4.17;2.07;;;29.70;5.70;;;;;;5059660;28;46513;-68
2022/07/31 11:16:26;;;;;;;7.20;2.10;;;29.70;6.90;;;;;;5062399;28;46307;-67
2022/07/31 11:18:57;;;;;;;4.97;1.80;;;29.60;6.60;;;;;;5061345;28;46439;-68
2022/07/31 11:21:49;;;;;;;3.87;1.90;;;29.40;7.40;;;;;;5061974;28;46535;-67
2022/07/31 11:24:19;;;;;;;4.40;2.10;;;29.20;6.30;;;;;;5056617;28;46967;-68
2022/07/31 11:26:49;;;;;;;5.37;2.57;;;29.40;7.50;;;;;;5060971;28;46412;-69
2022/07/31 11:29:25;;;;;;;5.87;1.90;;;29.90;7.30;;;;;;5060846;28;46323;-68
2022/07/31 11:31:51;;;;;;;3.90;2.17;;;30.40;6.70;;;;;;5062847;28;46381;-68
2022/07/31 11:34:16;;;;;;;4.13;2.23;;;30.30;5.40;;;;;;5060459;28;46489;-68
2022/07/31 11:36:43;;;;;;;3.60;2.30;;;29.80;7.00;;;;;;5062433;28;46425;-68
2022/07/31 11:39:11;;;;;;;3.33;2.37;;;29.40;7.20;;;;;;5062526;28;46535;-69
2022/07/31 11:41:37;;;;;;;4.00;2.10;;;29.30;7.90;;;;;;5062582;28;46580;-67
2022/07/31 11:44:03;;;;;;;3.33;1.90;;;29.20;7.10;;;;;;5059655;28;48318;-69
2022/07/31 11:46:32;;;;;;;6.27;2.20;;;29.10;8.50;;;;;;5062649;28;46370;-70
2022/07/31 11:48:59;;;;;;;4.93;1.80;;;29.00;8.60;;;;;;5061925;28;46416;-68
2022/07/31 11:51:26;;;;;;;4.10;1.90;;;29.20;8.60;;;;;;5062048;28;46355;-67
2022/07/31 11:53:54;;;;;;;5.40;2.47;;;29.40;7.40;;;;;;5061006;28;46492;-68
2022/07/31 11:56:20;;;;;;;3.23;1.90;;;29.40;8.10;;;;;;5060672;28;46633;-67
2022/07/31 11:58:48;;;;;;;3.67;1.97;;;29.60;7.70;;;;;;5058936;28;45867;-69
2022/07/31 12:01:14;;;;;;;4.40;2.23;;;29.80;7.60;;;;;;5061157;28;46564;-68
2022/07/31 12:03:41;;;;;;;4.70;1.90;;;30.00;6.70;;;;;;5059754;28;47260;-69
2022/07/31 12:06:08;;;;;;;3.40;1.70;;;29.80;7.60;;;;;;5060490;28;46783;-67
2022/07/31 12:08:34;;;;;;;5.43;1.93;;;29.30;7.60;;;;;;5060849;28;45912;-67
2022/07/31 12:11:01;;;;;;;3.47;1.50;;;29.30;7.90;;;;;;5062450;28;46846;-67
2022/07/31 12:13:28;;;;;;;4.07;2.00;;;29.30;7.10;;;;;;5060948;28;46360;-68
2022/07/31 12:15:58;;;;;;;5.30;2.00;;;29.20;7.50;;;;;;5060725;28;46266;-68
2022/07/31 12:18:24;;;;;;;4.53;1.83;;;29.10;7.60;;;;;;5059940;28;46279;-67
2022/07/31 12:20:55;;;;;;;2.50;1.60;;;29.20;7.00;;;;;;5061893;28;46492;-69
2022/07/31 12:23:22;;;;;;;6.17;2.10;;;29.20;6.00;;;;;;5058944;28;46452;-67
2022/07/31 12:25:47;;;;;;;3.43;1.77;;;29.30;6.90;;;;;;5060853;28;46402;-68
2022/07/31 12:28:14;;;;;;;2.80;1.43;;;29.30;6.30;;;;;;5060132;28;46471;-66
2022/07/31 12:30:41;;;;;;;3.90;2.10;;;29.20;6.50;;;;;;5061806;28;45813;-68
2022/07/31 12:33:08;;;;;;;3.93;1.90;;;29.20;5.50;;;;;;5054945;28;46324;-69
2022/07/31 12:35:41;;;;;;;3.23;2.13;;;29.20;6.20;;;;;;5059973;28;45803;-71
2022/07/31 12:38:07;;;;;;;3.00;1.63;;;29.10;6.10;;;;;;5059851;28;46425;-68
2022/07/31 12:40:33;;;;;;;3.63;1.80;;;28.80;5.50;;;;;;5059998;28;46385;-68
2022/07/31 12:42:59;;;;;;;2.60;1.60;;;28.60;5.30;;;;;;5057859;28;46857;-70
2022/07/31 12:45:36;;;;;;;4.83;1.90;;;28.50;6.50;;;;;;5058378;28;46404;-69
2022/07/31 12:48:03;;;;;;;6.90;1.97;;;28.50;6.30;;;;;;5058684;28;46779;-67
2022/07/31 12:50:31;;;;;;;3.20;1.90;;;28.40;6.30;;;;;;5059747;28;46571;-68